createdAt,value
2023-02-22T00:00:42.678Z,9.19
2023-02-22T00:03:14.978Z,9.18
2023-02-22T00:05:46.953Z,9.18
2023-02-22T00:08:17.608Z,9.13
2023-02-22T00:10:45.805Z,9.11
2023-02-22T00:13:15.056Z,9.01
2023-02-22T00:15:42.637Z,9.00
2023-02-22T00:18:11.312Z,9.02
2023-02-22T00:20:39.773Z,9.01
2023-02-22T00:23:08.219Z,8.96
2023-02-22T00:25:37.653Z,8.93
2023-02-22T00:28:05.824Z,8.95
2023-02-22T00:30:34.629Z,8.96
2023-02-22T00:33:02.852Z,8.96
2023-02-22T00:35:32.346Z,8.97
2023-02-22T00:38:02.290Z,8.98
2023-02-22T00:40:31.505Z,8.92
2023-02-22T00:43:01.815Z,8.89
2023-02-22T00:45:31.533Z,8.81
2023-02-22T00:47:59.849Z,8.76
2023-02-22T00:50:29.834Z,8.79
2023-02-22T00:52:58.419Z,8.78
2023-02-22T00:55:27.729Z,8.81
2023-02-22T00:57:56.324Z,8.80
2023-02-22T01:00:27.421Z,8.83
2023-02-22T01:02:56.899Z,8.81
2023-02-22T01:05:27.079Z,8.77
2023-02-22T01:07:56.621Z,8.76
2023-02-22T01:10:27.052Z,8.74
2023-02-22T01:12:55.303Z,8.76
2023-02-22T01:15:27.158Z,8.73
2023-02-22T01:17:54.721Z,8.71
2023-02-22T01:20:25.327Z,8.71
2023-02-22T01:22:54.560Z,8.68
2023-02-22T01:25:25.373Z,8.68
2023-02-22T01:27:53.795Z,8.75
2023-02-22T01:30:23.186Z,8.65
2023-02-22T01:32:52.843Z,8.65
2023-02-22T01:35:23.023Z,8.67
2023-02-22T01:37:50.628Z,8.68
2023-02-22T01:40:21.130Z,8.70
2023-02-22T01:42:52.650Z,8.66
2023-02-22T01:46:01.125Z,8.64
2023-02-22T01:48:35.868Z,8.59
2023-02-22T01:51:10.553Z,8.65
2023-02-22T01:53:42.307Z,8.65
2023-02-22T01:56:11.225Z,8.62
2023-02-22T01:58:41.784Z,8.57
2023-02-22T02:01:10.265Z,8.59
2023-02-22T02:03:41.815Z,8.55
2023-02-22T02:06:13.252Z,8.56
2023-02-22T02:08:51.532Z,8.54
2023-02-22T02:11:21.742Z,8.53
2023-02-22T02:13:51.750Z,8.52
2023-02-22T02:16:21.709Z,8.53
2023-02-22T02:18:51.003Z,8.49
2023-02-22T02:21:40.711Z,8.50
2023-02-22T02:24:51.493Z,8.51
2023-02-22T02:27:20.998Z,8.50
2023-02-22T02:30:13.855Z,8.50
2023-02-22T02:32:53.437Z,8.38
2023-02-22T02:35:29.794Z,8.37
2023-02-22T02:38:02.640Z,8.43
2023-02-22T02:40:38.228Z,8.34
2023-02-22T02:43:18.486Z,8.36
2023-02-22T02:45:52.938Z,8.28
2023-02-22T02:48:26.488Z,8.27
2023-02-22T02:50:56.377Z,8.23
2023-02-22T02:53:28.155Z,8.22
2023-02-22T02:55:55.623Z,8.15
2023-02-22T02:58:24.518Z,8.08
2023-02-22T03:00:55.505Z,8.02
2023-02-22T03:03:47.510Z,8.01
2023-02-22T03:06:29.639Z,7.89
2023-02-22T03:09:06.124Z,7.89
2023-02-22T03:11:42.134Z,7.84
2023-02-22T03:14:17.676Z,7.89
2023-02-22T03:16:51.167Z,7.84
2023-02-22T03:19:27.251Z,7.87
2023-02-22T03:22:00.821Z,7.86
2023-02-22T03:24:32.953Z,7.84
2023-02-22T03:27:04.669Z,7.82
2023-02-22T03:29:36.511Z,7.80
2023-02-22T03:32:08.674Z,7.76
2023-02-22T03:34:42.340Z,7.68
2023-02-22T03:37:16.590Z,7.66
2023-02-22T03:39:46.724Z,7.65
2023-02-22T03:42:18.510Z,7.55
2023-02-22T03:44:48.145Z,7.53
2023-02-22T03:47:18.606Z,7.52
2023-02-22T03:49:52.216Z,7.49
2023-02-22T03:52:20.343Z,7.49
2023-02-22T03:54:47.868Z,7.46
2023-02-22T03:57:21.950Z,7.46
2023-02-22T03:59:49.742Z,7.45
2023-02-22T04:02:18.966Z,7.43
2023-02-22T04:04:48.575Z,7.39
2023-02-22T04:07:16.460Z,7.34
2023-02-22T04:09:43.954Z,7.36
2023-02-22T04:12:11.423Z,7.30
2023-02-22T04:14:38.940Z,7.30
2023-02-22T04:17:06.448Z,7.25
2023-02-22T04:19:33.978Z,7.25
2023-02-22T04:22:02.815Z,7.23
2023-02-22T04:24:30.686Z,7.18
2023-02-22T04:26:58.231Z,7.18
2023-02-22T04:29:25.733Z,7.13
2023-02-22T04:31:53.447Z,7.12
2023-02-22T04:34:21.064Z,7.08
2023-02-22T04:36:48.634Z,6.97
2023-02-22T04:39:17.545Z,6.90
2023-02-22T04:41:45.014Z,6.87
2023-02-22T04:44:12.485Z,6.87
2023-02-22T04:46:40.047Z,6.84
2023-02-22T04:49:07.631Z,6.80
2023-02-22T04:51:35.833Z,6.81
2023-02-22T04:54:03.590Z,6.82
2023-02-22T04:56:32.439Z,6.89
2023-02-22T04:58:59.970Z,6.91
2023-02-22T05:01:33.470Z,6.86
2023-02-22T05:04:02.529Z,6.88
2023-02-22T05:06:30.005Z,6.86
2023-02-22T05:08:57.507Z,6.81
2023-02-22T05:11:25.154Z,6.77
2023-02-22T05:13:54.011Z,6.76
2023-02-22T05:16:21.633Z,6.70
2023-02-22T05:18:49.212Z,6.70
2023-02-22T05:21:17.009Z,6.66
2023-02-22T05:23:44.659Z,6.59
2023-02-22T05:26:12.154Z,6.51
2023-02-22T05:28:39.998Z,6.45
2023-02-22T05:31:09.626Z,6.41
2023-02-22T05:33:39.532Z,6.33
2023-02-22T05:36:08.696Z,6.26
2023-02-22T05:38:43.024Z,6.21
2023-02-22T05:41:10.944Z,6.18
2023-02-22T05:43:38.706Z,6.12
2023-02-22T05:46:06.605Z,6.07
2023-02-22T05:48:35.478Z,6.00
2023-02-22T05:51:03.698Z,5.92
2023-02-22T05:53:31.509Z,5.90
2023-02-22T05:55:58.987Z,5.93
2023-02-22T05:58:26.464Z,5.95
2023-02-22T06:00:54.050Z,5.98
2023-02-22T06:03:21.571Z,6.05
2023-02-22T06:05:50.577Z,6.09
2023-02-22T06:08:18.301Z,6.10
2023-02-22T06:10:45.975Z,6.08
2023-02-22T06:13:13.548Z,6.07
2023-02-22T06:15:41.432Z,5.93
2023-02-22T06:18:08.911Z,6.06
2023-02-22T06:20:36.650Z,6.06
2023-02-22T06:23:05.484Z,6.13
2023-02-22T06:25:33.321Z,6.08
2023-02-22T06:28:01.658Z,6.16
2023-02-22T06:30:30.762Z,6.19
2023-02-22T06:32:58.462Z,6.24
2023-02-22T06:35:26.121Z,6.29
2023-02-22T06:37:54.032Z,6.29
2023-02-22T06:40:22.890Z,6.38
2023-02-22T06:42:50.562Z,6.45
2023-02-22T06:45:18.924Z,6.48
2023-02-22T06:47:47.202Z,6.52
2023-02-22T06:50:22.268Z,6.58
2023-02-22T06:52:49.761Z,6.63
2023-02-22T06:55:23.330Z,6.62
2023-02-22T06:57:51.634Z,6.64
2023-02-22T07:00:21.391Z,6.69
2023-02-22T07:02:49.538Z,6.71
2023-02-22T07:05:18.944Z,6.75
2023-02-22T07:07:46.799Z,6.73
2023-02-22T07:10:21.200Z,6.76
2023-02-22T07:12:52.340Z,6.80
2023-02-22T07:15:21.427Z,6.85
2023-02-22T07:17:49.222Z,6.80
2023-02-22T07:20:17.510Z,6.84
2023-02-22T07:22:44.990Z,6.94
2023-02-22T07:25:12.640Z,6.98
2023-02-22T07:27:41.436Z,6.99
2023-02-22T07:30:17.427Z,7.04
2023-02-22T07:32:45.438Z,7.16
2023-02-22T07:35:16.749Z,7.25
2023-02-22T07:37:44.558Z,7.37
2023-02-22T07:40:13.265Z,7.50
2023-02-22T07:42:54.703Z,7.64
2023-02-22T07:45:24.502Z,7.75
2023-02-22T07:47:52.196Z,7.83
2023-02-22T07:50:21.471Z,7.94
2023-02-22T07:52:50.666Z,8.02
2023-02-22T07:55:20.457Z,8.13
2023-02-22T07:57:49.091Z,8.21
2023-02-22T08:00:23.625Z,8.31
2023-02-22T08:02:52.764Z,8.41
2023-02-22T08:05:21.366Z,8.45
2023-02-22T08:07:48.952Z,8.53
2023-02-22T08:10:18.060Z,8.65
2023-02-22T08:12:45.602Z,8.70
2023-02-22T08:15:17.944Z,8.78
2023-02-22T08:17:45.527Z,8.86
2023-02-22T08:20:14.864Z,8.89
2023-02-22T08:22:44.415Z,8.93
2023-02-22T08:25:12.017Z,9.01
2023-02-22T08:27:40.086Z,9.07
2023-02-22T08:30:09.183Z,9.10
2023-02-22T08:32:36.863Z,9.19
2023-02-22T08:35:04.948Z,9.25
2023-02-22T08:37:34.037Z,9.31
2023-02-22T08:40:01.528Z,9.38
2023-02-22T08:42:28.998Z,9.45
2023-02-22T08:44:56.699Z,9.49
2023-02-22T08:47:24.381Z,9.52
2023-02-22T08:49:51.836Z,9.60
2023-02-22T08:52:21.225Z,9.71
2023-02-22T08:54:50.122Z,9.70
2023-02-22T08:57:18.023Z,9.81
2023-02-22T08:59:46.939Z,9.88
2023-02-22T09:02:16.868Z,9.98
2023-02-22T09:04:44.703Z,10.08
2023-02-22T09:07:12.579Z,10.19
2023-02-22T09:09:40.098Z,10.23
2023-02-22T09:12:09.221Z,10.28
2023-02-22T09:14:37.016Z,10.32
2023-02-22T09:17:05.963Z,10.44
2023-02-22T09:19:33.682Z,10.52
2023-02-22T09:22:01.411Z,10.56
2023-02-22T09:24:29.234Z,10.63
2023-02-22T09:26:59.166Z,10.61
2023-02-22T09:29:29.481Z,10.76
2023-02-22T09:31:57.819Z,10.82
2023-02-22T09:34:29.376Z,10.83
2023-02-22T09:36:58.226Z,10.90
2023-02-22T09:39:25.942Z,11.00
2023-02-22T09:42:02.365Z,11.02
2023-02-22T09:44:39.938Z,11.10
2023-02-22T09:47:18.068Z,11.17
2023-02-22T09:49:57.307Z,11.15
2023-02-22T09:52:28.869Z,11.24
2023-02-22T09:55:06.118Z,11.23
2023-02-22T09:57:37.985Z,11.31
2023-02-22T10:00:15.040Z,11.39
2023-02-22T10:02:50.278Z,11.38
2023-02-22T10:05:20.438Z,11.41
2023-02-22T10:07:54.337Z,11.43
2023-02-22T10:10:24.979Z,11.57
2023-02-22T10:13:00.432Z,11.65
2023-02-22T10:15:38.106Z,11.70
2023-02-22T10:18:39.011Z,11.71
2023-02-22T10:21:17.298Z,11.86
2023-02-22T10:23:53.453Z,11.91
2023-02-22T10:26:26.683Z,11.90
2023-02-22T10:28:59.234Z,12.04
2023-02-22T10:31:33.544Z,12.07
2023-02-22T10:34:05.612Z,12.18
2023-02-22T10:36:34.561Z,12.16
2023-02-22T10:39:16.317Z,12.17
2023-02-22T10:41:50.201Z,12.27
2023-02-22T10:44:17.893Z,12.41
2023-02-22T10:46:48.534Z,12.51
2023-02-22T10:49:21.727Z,12.62
2023-02-22T10:51:58.437Z,12.63
2023-02-22T10:54:29.581Z,12.71
2023-02-22T10:56:57.866Z,12.76
2023-02-22T10:59:32.670Z,12.81
2023-02-22T11:02:02.744Z,12.82
2023-02-22T11:04:46.091Z,12.86
2023-02-22T11:07:21.727Z,12.85
2023-02-22T11:09:51.571Z,12.83
2023-02-22T11:12:21.435Z,12.79
2023-02-22T11:14:49.444Z,12.88
2023-02-22T11:17:25.558Z,13.02
2023-02-22T11:19:53.353Z,13.00
2023-02-22T11:22:24.744Z,13.09
2023-02-22T11:27:38.794Z,13.19
2023-02-22T11:30:21.672Z,13.23
2023-02-22T11:32:55.582Z,13.21
2023-02-22T11:35:36.908Z,13.22
2023-02-22T11:38:20.925Z,13.34
2023-02-22T11:41:05.178Z,13.37
2023-02-22T11:43:33.233Z,13.42
2023-02-22T11:46:04.763Z,13.59
2023-02-22T11:48:36.889Z,13.76
2023-02-22T11:51:16.117Z,13.76
2023-02-22T11:54:01.089Z,13.90
2023-02-22T11:56:38.091Z,13.97
2023-02-22T11:59:16.679Z,14.12
2023-02-22T12:01:51.259Z,13.83
2023-02-22T12:04:41.977Z,13.92
2023-02-22T12:07:23.111Z,13.88
2023-02-22T12:10:00.502Z,13.76
2023-02-22T12:12:36.802Z,13.95
2023-02-22T12:15:13.787Z,14.10
2023-02-22T12:17:59.438Z,14.23
2023-02-22T12:20:33.213Z,14.13
2023-02-22T12:23:09.662Z,14.08
2023-02-22T12:25:42.054Z,14.16
2023-02-22T12:28:24.813Z,14.19
2023-02-22T12:30:57.896Z,14.37
2023-02-22T12:33:29.796Z,14.40
2023-02-22T12:36:01.515Z,14.54
2023-02-22T12:38:37.127Z,14.60
2023-02-22T12:41:13.807Z,14.63
2023-02-22T12:43:47.296Z,14.70
2023-02-22T12:46:18.957Z,14.72
2023-02-22T12:48:53.274Z,14.81
2023-02-22T12:51:29.138Z,14.74
2023-02-22T12:54:05.815Z,14.85
2023-02-22T12:56:38.153Z,14.96
2023-02-22T12:59:13.497Z,14.80
2023-02-22T13:01:44.145Z,14.81
2023-02-22T13:04:20.563Z,14.95
2023-02-22T13:07:07.772Z,14.92
2023-02-22T13:10:01.000Z,14.70
2023-02-22T13:12:37.353Z,14.88
2023-02-22T13:15:16.977Z,14.76
2023-02-22T13:17:55.753Z,14.79
2023-02-22T13:20:29.161Z,14.87
2023-02-22T13:23:04.099Z,15.06
2023-02-22T13:25:41.709Z,15.07
2023-02-22T13:28:23.065Z,15.08
2023-02-22T13:31:03.021Z,15.06
2023-02-22T13:33:45.711Z,15.13
2023-02-22T13:36:26.853Z,15.01
2023-02-22T13:39:41.261Z,15.02
2023-02-22T13:42:23.375Z,15.09
2023-02-22T13:45:10.497Z,15.07
2023-02-22T13:48:06.550Z,15.14
2023-02-22T13:50:51.696Z,15.10
2023-02-22T13:53:25.703Z,15.03
2023-02-22T13:55:57.997Z,15.11
2023-02-22T13:58:26.111Z,14.72
2023-02-22T14:00:55.653Z,14.61
2023-02-22T14:03:41.745Z,14.72
2023-02-22T14:06:11.725Z,14.78
2023-02-22T14:08:43.817Z,14.98
2023-02-22T14:11:56.770Z,15.08
2023-02-22T14:14:25.864Z,15.16
2023-02-22T14:17:28.456Z,15.19
2023-02-22T14:20:05.697Z,15.17
2023-02-22T14:22:33.303Z,15.09
2023-02-22T14:25:00.839Z,15.17
2023-02-22T14:27:41.274Z,14.90
2023-02-22T14:30:25.973Z,15.03
2023-02-22T14:32:53.690Z,14.86
2023-02-22T14:35:29.990Z,14.73
2023-02-22T14:38:01.425Z,14.55
2023-02-22T14:40:31.214Z,14.46
2023-02-22T14:43:03.931Z,14.37
2023-02-22T14:45:35.479Z,14.38
2023-02-22T14:48:13.597Z,14.37
2023-02-22T14:50:48.903Z,14.41
2023-02-22T14:53:25.232Z,14.32
2023-02-22T14:55:58.036Z,14.32
2023-02-22T14:58:31.749Z,14.37
2023-02-22T15:01:00.857Z,14.43
2023-02-22T15:03:33.103Z,14.30
2023-02-22T15:06:06.089Z,14.27
2023-02-22T15:08:34.384Z,14.30
2023-02-22T15:11:03.440Z,14.52
2023-02-22T15:13:34.098Z,14.49
2023-02-22T15:16:07.746Z,14.62
2023-02-22T15:18:40.899Z,14.59
2023-02-22T15:21:13.413Z,14.61
2023-02-22T15:23:44.077Z,14.70
2023-02-22T15:26:19.011Z,14.52
2023-02-22T15:28:46.720Z,14.50
2023-02-22T15:31:25.662Z,14.38
2023-02-22T15:33:54.690Z,14.20
2023-02-22T15:36:25.862Z,14.13
2023-02-22T15:38:56.733Z,14.35
2023-02-22T15:41:28.760Z,14.51
2023-02-22T15:44:17.557Z,14.34
2023-02-22T15:46:50.575Z,14.28
2023-02-22T15:49:24.271Z,14.20
2023-02-22T15:52:04.250Z,14.16
2023-02-22T15:54:42.355Z,14.37
2023-02-22T15:57:10.324Z,14.28
2023-02-22T15:59:44.673Z,14.25
2023-02-22T16:02:31.425Z,14.14
2023-02-22T16:05:02.298Z,14.26
2023-02-22T16:07:30.583Z,14.34
2023-02-22T16:09:59.013Z,14.25
2023-02-22T16:12:28.760Z,14.14
2023-02-22T16:14:57.203Z,13.84
2023-02-22T16:17:31.791Z,13.90
2023-02-22T16:19:59.716Z,13.84
2023-02-22T16:22:33.651Z,13.78
2023-02-22T16:25:24.996Z,13.82
2023-02-22T16:27:55.808Z,13.85
2023-02-22T16:30:26.808Z,13.86
2023-02-22T16:32:57.165Z,13.81
2023-02-22T16:35:28.524Z,13.80
2023-02-22T16:37:59.397Z,13.72
2023-02-22T16:40:32.115Z,13.72
2023-02-22T16:43:01.839Z,13.56
2023-02-22T16:45:29.565Z,13.52
2023-02-22T16:48:00.153Z,13.41
2023-02-22T16:50:27.655Z,13.23
2023-02-22T16:52:58.436Z,13.22
2023-02-22T16:55:26.025Z,13.26
2023-02-22T16:57:56.590Z,13.22
2023-02-22T17:00:31.110Z,13.23
2023-02-22T17:03:03.746Z,13.18
2023-02-22T17:05:31.739Z,13.25
2023-02-22T17:07:59.280Z,13.18
2023-02-22T17:10:27.028Z,13.20
2023-02-22T17:12:54.696Z,13.20
2023-02-22T17:15:25.016Z,13.09
2023-02-22T17:17:53.964Z,13.02
2023-02-22T17:20:29.988Z,12.95
2023-02-22T17:22:58.859Z,13.05
2023-02-22T17:25:30.674Z,13.07
2023-02-22T17:27:58.136Z,13.06
2023-02-22T17:30:25.956Z,12.99
2023-02-22T17:32:55.937Z,12.95
2023-02-22T17:35:26.846Z,13.05
2023-02-22T17:37:54.337Z,13.12
2023-02-22T17:40:21.905Z,13.02
2023-02-22T17:42:54.416Z,12.98
2023-02-22T17:45:23.341Z,13.04
2023-02-22T17:47:51.676Z,13.05
2023-02-22T17:50:19.959Z,13.06
2023-02-22T17:52:51.470Z,12.94
2023-02-22T17:55:20.236Z,12.98
2023-02-22T17:57:48.794Z,12.86
2023-02-22T18:00:23.326Z,12.80
2023-02-22T18:02:52.364Z,12.76
2023-02-22T18:05:20.195Z,12.78
2023-02-22T18:07:49.039Z,12.74
2023-02-22T18:10:20.594Z,12.67
2023-02-22T18:12:48.829Z,12.57
2023-02-22T18:15:17.524Z,12.60
2023-02-22T18:17:46.178Z,12.56
2023-02-22T18:20:15.421Z,12.56
2023-02-22T18:22:44.207Z,12.54
2023-02-22T18:25:15.657Z,12.52
2023-02-22T18:27:44.052Z,12.46
2023-02-22T18:30:13.300Z,12.51
2023-02-22T18:32:41.577Z,12.50
2023-02-22T18:35:09.207Z,12.50
2023-02-22T18:37:36.932Z,12.54
2023-02-22T18:40:10.143Z,12.56
2023-02-22T18:42:40.128Z,12.53
2023-02-22T18:45:08.702Z,12.54
2023-02-22T18:47:40.337Z,12.52
2023-02-22T18:50:08.273Z,12.47
2023-02-22T18:52:44.596Z,12.53
2023-02-22T18:55:13.936Z,12.46
2023-02-22T18:57:42.982Z,12.37
2023-02-22T19:00:12.173Z,12.49
2023-02-22T19:02:43.342Z,12.56
2023-02-22T19:05:11.405Z,12.58
2023-02-22T19:07:38.940Z,12.48
2023-02-22T19:10:07.494Z,12.48
2023-02-22T19:12:35.119Z,12.54
2023-02-22T19:15:04.087Z,12.54
2023-02-22T19:17:32.532Z,12.52
2023-02-22T19:20:00.009Z,12.54
2023-02-22T19:22:32.602Z,12.50
2023-02-22T19:25:01.166Z,12.46
2023-02-22T19:27:30.257Z,12.41
2023-02-22T19:29:57.967Z,12.39
2023-02-22T19:32:26.957Z,12.20
2023-02-22T19:35:01.891Z,12.34
2023-02-22T19:37:35.346Z,12.34
2023-02-22T19:40:07.081Z,12.39
2023-02-22T19:42:34.557Z,12.39
2023-02-22T19:45:02.190Z,12.29
2023-02-22T19:47:31.014Z,12.22
2023-02-22T19:50:00.044Z,12.26
2023-02-22T19:52:28.786Z,12.20
2023-02-22T19:54:56.389Z,11.91
2023-02-22T19:57:24.756Z,11.56
2023-02-22T19:59:52.263Z,11.54
2023-02-22T20:02:22.793Z,11.53
2023-02-22T20:04:51.659Z,11.40
2023-02-22T20:07:19.158Z,11.33
2023-02-22T20:09:46.703Z,11.48
2023-02-22T20:12:14.182Z,11.33
2023-02-22T20:14:41.804Z,11.21
2023-02-22T20:17:10.159Z,11.07
2023-02-22T20:19:40.195Z,10.97
2023-02-22T20:22:10.121Z,11.40
2023-02-22T20:24:37.642Z,11.61
2023-02-22T20:27:05.096Z,11.67
2023-02-22T20:29:32.613Z,11.72
2023-02-22T20:32:01.562Z,11.77
2023-02-22T20:34:31.333Z,11.74
2023-02-22T20:36:59.368Z,11.56
2023-02-22T20:39:28.182Z,11.76
2023-02-22T20:41:55.853Z,11.82
2023-02-22T20:44:23.352Z,11.71
2023-02-22T20:46:50.888Z,11.77
2023-02-22T20:49:21.226Z,11.91
2023-02-22T20:51:49.824Z,11.99
2023-02-22T20:54:17.963Z,11.93
2023-02-22T20:56:48.124Z,11.93
2023-02-22T20:59:17.600Z,11.91
2023-02-22T21:01:47.341Z,11.89
2023-02-22T21:04:14.936Z,11.87
2023-02-22T21:06:42.955Z,11.80
2023-02-22T21:09:14.329Z,11.78
2023-02-22T21:11:41.959Z,11.64
2023-02-22T21:14:12.247Z,11.73
2023-02-22T21:16:39.742Z,11.77
2023-02-22T21:19:08.582Z,11.76
2023-02-22T21:21:36.501Z,11.77
2023-02-22T21:24:04.388Z,11.74
2023-02-22T21:26:33.767Z,11.67
2023-02-22T21:29:03.365Z,11.68
2023-02-22T21:31:33.891Z,11.36
2023-02-22T21:34:03.991Z,11.42
2023-02-22T21:36:32.001Z,11.31
2023-02-22T21:39:00.745Z,11.54
2023-02-22T21:41:30.812Z,11.59
2023-02-22T21:43:59.882Z,11.48
2023-02-22T21:46:29.306Z,11.54
2023-02-22T21:48:59.202Z,11.44
2023-02-22T21:51:31.220Z,11.49
2023-02-22T21:54:00.917Z,11.60
2023-02-22T21:56:29.249Z,11.60
2023-02-22T21:58:59.650Z,11.54
2023-02-22T22:01:28.314Z,11.56
2023-02-22T22:03:59.875Z,11.47
2023-02-22T22:06:28.716Z,11.51
2023-02-22T22:08:57.120Z,11.58
2023-02-22T22:11:25.036Z,11.58
2023-02-22T22:13:56.871Z,11.63
2023-02-22T22:16:26.373Z,11.67
2023-02-22T22:18:54.904Z,11.60
2023-02-22T22:21:26.750Z,11.60
2023-02-22T22:23:55.898Z,11.57
2023-02-22T22:26:25.333Z,11.60
2023-02-22T22:28:54.710Z,11.57
2023-02-22T22:31:24.716Z,11.61
2023-02-22T22:33:52.684Z,11.56
2023-02-22T22:36:22.253Z,11.37
2023-02-22T22:38:52.687Z,11.46
2023-02-22T22:41:21.767Z,11.43
2023-02-22T22:43:49.409Z,11.51
2023-02-22T22:46:18.574Z,11.41
2023-02-22T22:48:47.514Z,11.37
2023-02-22T22:51:18.105Z,11.48
2023-02-22T22:53:47.294Z,11.15
2023-02-22T22:56:17.601Z,11.25
2023-02-22T22:58:52.827Z,11.18
2023-02-22T23:01:26.533Z,11.26
2023-02-22T23:03:56.147Z,11.29
2023-02-22T23:06:28.084Z,11.48
2023-02-22T23:08:59.852Z,11.41
2023-02-22T23:11:30.488Z,11.41
2023-02-22T23:14:00.062Z,11.42
2023-02-22T23:16:27.531Z,11.48
2023-02-22T23:18:55.169Z,11.51
2023-02-22T23:21:24.267Z,11.49
2023-02-22T23:23:53.219Z,11.50
2023-02-22T23:26:20.695Z,11.42
2023-02-22T23:28:52.337Z,11.48
2023-02-22T23:31:20.313Z,11.52
2023-02-22T23:33:49.078Z,11.52
2023-02-22T23:36:17.279Z,11.42
2023-02-22T23:38:45.899Z,11.50
2023-02-22T23:41:17.088Z,11.51
2023-02-22T23:43:47.148Z,11.51
2023-02-22T23:46:19.197Z,11.49
2023-02-22T23:48:51.611Z,11.54
2023-02-22T23:51:24.919Z,11.53
2023-02-22T23:53:55.496Z,11.52
2023-02-22T23:56:26.164Z,11.31
2023-02-22T23:58:56.960Z,11.34
